Time;durP1;ratioP1;P1;durP2;ratioP2;P2;SDS_P1;SDS_P2;PMS_P1;PMS_P2;Temp;Humidity;BMP_temperature;BMP_pressure;BME280_temperature;BME280_humidity;BME280_pressure;Samples;Min_cycle;Max_cycle;Signal;HPM_P1;HPM_P2
2022/04/01 00:02:20;;;;;;;6.27;3.77;;;;;;;;;;5027701;28;20269;-66
2022/04/01 00:04:46;;;;;;;7.87;4.97;;;;;;;;;;5019637;28;20717;-66
2022/04/01 00:07:12;;;;;;;7.10;4.40;;;;;;;;;;5028032;28;20724;-67
2022/04/01 00:09:37;;;;;;;8.07;4.87;;;;;;;;;;5029903;28;20190;-66
2022/04/01 00:12:06;;;;;;;9.33;5.60;;;;;;;;;;5026343;28;20182;-66
2022/04/01 00:14:32;;;;;;;6.83;4.03;;;;;;;;;;5020069;28;20317;-66
2022/04/01 00:16:57;;;;;;;6.33;3.90;;;;;;;;;;5026126;28;20559;-69
2022/04/01 00:19:23;;;;;;;8.57;4.20;;;;;;;;;;5028359;28;20185;-66
2022/04/01 00:21:48;;;;;;;6.53;3.77;;;;;;;;;;5016849;28;20720;-66
2022/04/01 00:24:14;;;;;;;5.73;3.27;;;;;;;;;;5020262;28;20190;-66
2022/04/01 00:26:39;;;;;;;5.67;2.77;;;;;;;;;;5015409;28;20179;-66
2022/04/01 00:29:14;;;;;;;5.07;3.20;;;;;;;;;;5024962;28;20178;-66
2022/04/01 00:31:41;;;;;;;5.77;3.00;;;;;;;;;;5023743;28;20312;-66
2022/04/01 00:34:16;;;;;;;4.20;2.57;;;;;;;;;;5010631;28;20273;-66
2022/04/01 00:36:48;;;;;;;4.20;2.73;;;;;;;;;;5024230;28;20228;-66
2022/04/01 00:39:14;;;;;;;5.83;2.13;;;;;;;;;;5027111;28;20240;-66
2022/04/01 00:41:40;;;;;;;5.87;2.70;;;;;;;;;;5025312;28;20578;-66
2022/04/01 00:44:17;;;;;;;3.87;2.20;;;;;;;;;;5026863;28;20300;-67
2022/04/01 00:46:45;;;;;;;4.70;1.97;;;;;;;;;;5020904;28;20293;-66
2022/04/01 00:49:10;;;;;;;5.57;2.70;;;;;;;;;;5020612;28;20185;-66
2022/04/01 00:51:37;;;;;;;2.63;1.57;;;;;;;;;;5021141;28;20969;-66
2022/04/01 00:54:06;;;;;;;6.07;2.40;;;;;;;;;;5028020;28;20186;-66
2022/04/01 00:56:32;;;;;;;3.87;2.10;;;;;;;;;;5027642;28;20182;-66
2022/04/01 00:58:58;;;;;;;2.37;1.57;;;;;;;;;;5022693;28;20700;-66
2022/04/01 01:01:24;;;;;;;4.53;2.93;;;;;;;;;;5023773;28;20187;-66
2022/04/01 01:03:50;;;;;;;4.63;2.70;;;;;;;;;;5008452;28;20660;-66
2022/04/01 01:06:20;;;;;;;4.97;2.83;;;;;;;;;;5020656;28;20249;-66
2022/04/01 01:08:47;;;;;;;6.13;2.63;;;;;;;;;;5028633;28;20174;-66
2022/04/01 01:11:12;;;;;;;5.33;2.63;;;;;;;;;;5019003;28;20545;-66
2022/04/01 01:13:39;;;;;;;2.73;1.90;;;;;;;;;;5028470;28;20697;-66
2022/04/01 01:16:05;;;;;;;3.83;2.40;;;;;;;;;;5018147;28;20186;-66
2022/04/01 01:18:30;;;;;;;4.97;1.87;;;;;;;;;;5026475;28;20340;-66
2022/04/01 01:20:55;;;;;;;4.17;2.63;;;;;;;;;;5019371;28;20186;-66
2022/04/01 01:23:27;;;;;;;5.03;2.60;;;;;;;;;;5026692;28;20665;-66
2022/04/01 01:25:53;;;;;;;2.33;1.83;;;;;;;;;;5020838;28;20182;-66
2022/04/01 01:28:18;;;;;;;2.93;1.80;;;;;;;;;;5026727;28;20501;-67
2022/04/01 01:30:44;;;;;;;5.43;1.90;;;;;;;;;;5026884;28;20209;-67
2022/04/01 01:33:09;;;;;;;4.13;3.00;;;;;;;;;;5027149;28;20189;-66
2022/04/01 01:35:34;;;;;;;3.73;1.97;;;;;;;;;;5019719;28;20281;-66
2022/04/01 01:38:01;;;;;;;5.33;2.97;;;;;;;;;;5017218;28;20212;-68
2022/04/01 01:40:27;;;;;;;4.80;2.90;;;;;;;;;;5022045;28;20182;-66
2022/04/01 01:42:52;;;;;;;4.47;2.40;;;;;;;;;;5015510;28;20186;-67
2022/04/01 01:45:19;;;;;;;6.03;2.83;;;;;;;;;;5027636;28;20182;-67
2022/04/01 01:47:44;;;;;;;6.67;2.63;;;;;;;;;;5014314;28;20281;-67
2022/04/01 01:55:38;;;;;;;2.37;2.00;;;;;;;;;;5018799;28;20205;-67
2022/04/01 01:58:04;;;;;;;5.10;2.67;;;;;;;;;;5024232;28;20658;-67
2022/04/01 02:00:29;;;;;;;6.87;2.70;;;;;;;;;;5022635;28;20617;-66
2022/04/01 02:02:56;;;;;;;4.73;2.60;;;;;;;;;;5024337;28;20196;-66
2022/04/01 02:05:21;;;;;;;6.43;2.80;;;;;;;;;;5023136;28;20266;-66
2022/04/01 02:07:47;;;;;;;5.03;2.63;;;;;;;;;;5022078;28;20531;-67
2022/04/01 02:10:15;;;;;;;5.27;2.40;;;;;;;;;;5017561;28;20183;-66
2022/04/01 02:12:43;;;;;;;3.37;2.43;;;;;;;;;;5026693;28;20173;-66
2022/04/01 02:15:12;;;;;;;5.30;2.40;;;;;;;;;;5014904;28;20273;-67
2022/04/01 02:17:38;;;;;;;8.20;2.57;;;;;;;;;;5009898;28;20530;-67
2022/04/01 02:20:09;;;;;;;3.87;2.50;;;;;;;;;;5015886;28;20240;-67
2022/04/01 02:22:35;;;;;;;4.83;2.90;;;;;;;;;;5021962;28;20252;-67
2022/04/01 02:25:03;;;;;;;4.37;2.70;;;;;;;;;;5019175;28;20276;-67
2022/04/01 02:27:29;;;;;;;5.40;2.70;;;;;;;;;;5027740;28;20210;-67
2022/04/01 02:29:54;;;;;;;5.23;2.77;;;;;;;;;;5020264;28;20685;-67
2022/04/01 02:32:20;;;;;;;4.73;2.50;;;;;;;;;;5013160;28;20292;-67
2022/04/01 02:34:48;;;;;;;5.83;3.20;;;;;;;;;;5021778;28;20206;-67
2022/04/01 02:37:13;;;;;;;6.07;2.37;;;;;;;;;;5020444;28;20262;-66
2022/04/01 02:39:38;;;;;;;5.50;2.73;;;;;;;;;;5021936;28;20376;-67
2022/04/01 02:42:04;;;;;;;9.80;3.57;;;;;;;;;;5018549;28;20193;-67
2022/04/01 02:44:29;;;;;;;7.63;3.20;;;;;;;;;;5023440;28;20219;-67
2022/04/01 02:46:55;;;;;;;6.03;3.63;;;;;;;;;;5019250;28;20190;-67
2022/04/01 02:49:20;;;;;;;4.00;2.77;;;;;;;;;;5026568;28;20170;-67
2022/04/01 02:51:46;;;;;;;4.53;3.20;;;;;;;;;;5021828;28;20206;-67
2022/04/01 02:54:13;;;;;;;5.03;3.13;;;;;;;;;;5023215;28;20645;-67
2022/04/01 02:56:40;;;;;;;4.30;2.63;;;;;;;;;;5015811;28;20186;-67
2022/04/01 02:59:07;;;;;;;5.10;2.97;;;;;;;;;;5025970;28;20561;-67
2022/04/01 03:01:33;;;;;;;6.20;3.30;;;;;;;;;;5024926;28;20189;-67
2022/04/01 03:03:58;;;;;;;6.13;3.83;;;;;;;;;;5023694;28;20201;-66
2022/04/01 03:06:24;;;;;;;5.67;3.00;;;;;;;;;;5024467;28;20229;-66
2022/04/01 03:08:50;;;;;;;4.20;2.67;;;;;;;;;;5027015;28;20170;-67
2022/04/01 03:11:16;;;;;;;5.67;3.53;;;;;;;;;;5026509;28;20182;-67
2022/04/01 03:13:42;;;;;;;4.83;3.17;;;;;;;;;;5025075;28;20197;-66
2022/04/01 03:16:07;;;;;;;5.33;2.37;;;;;;;;;;5026142;28;20635;-66
2022/04/01 03:18:33;;;;;;;6.63;3.50;;;;;;;;;;5026220;28;20216;-67
2022/04/01 03:20:58;;;;;;;4.57;2.47;;;;;;;;;;5026571;28;20182;-67
2022/04/01 03:23:23;;;;;;;5.50;2.80;;;;;;;;;;5023571;28;20610;-66
2022/04/01 03:25:50;;;;;;;7.47;3.63;;;;;;;;;;5026387;28;20563;-66
2022/04/01 03:28:17;;;;;;;4.93;2.33;;;;;;;;;;5020243;28;20261;-67
2022/04/01 03:30:42;;;;;;;4.83;2.33;;;;;;;;;;5018551;28;20236;-67
2022/04/01 03:33:08;;;;;;;3.43;2.37;;;;;;;;;;5025016;28;20218;-67
2022/04/01 03:35:34;;;;;;;4.00;2.70;;;;;;;;;;5026081;28;20186;-67
2022/04/01 03:37:59;;;;;;;5.23;3.63;;;;;;;;;;5026113;28;20220;-67
2022/04/01 03:40:29;;;;;;;4.00;2.47;;;;;;;;;;5011490;28;20327;-67
2022/04/01 03:42:55;;;;;;;6.53;3.30;;;;;;;;;;5015457;28;20182;-66
2022/04/01 03:45:22;;;;;;;4.60;1.97;;;;;;;;;;5025707;28;20185;-66
2022/04/01 03:48:04;;;;;;;6.67;2.73;;;;;;;;;;5020136;28;20264;-67
2022/04/01 03:50:33;;;;;;;5.57;2.37;;;;;;;;;;5029408;28;20202;-66
2022/04/01 03:53:05;;;;;;;3.13;2.10;;;;;;;;;;5029658;28;20676;-67
2022/04/01 03:55:37;;;;;;;3.87;1.97;;;;;;;;;;5025285;28;20190;-66
2022/04/01 03:58:12;;;;;;;4.53;2.23;;;;;;;;;;5020781;28;20716;-67
2022/04/01 04:00:40;;;;;;;3.27;1.93;;;;;;;;;;5021407;28;20269;-67
2022/04/01 04:03:08;;;;;;;4.07;2.07;;;;;;;;;;5025929;28;20593;-67
2022/04/01 04:05:36;;;;;;;4.10;1.83;;;;;;;;;;5025623;28;20381;-67
2022/04/01 04:08:02;;;;;;;5.53;2.00;;;;;;;;;;5026446;28;20193;-67
2022/04/01 04:10:29;;;;;;;3.63;1.70;;;;;;;;;;5023825;28;20539;-67
2022/04/01 04:12:56;;;;;;;4.17;1.43;;;;;;;;;;5030137;28;20247;-67
2022/04/01 04:15:26;;;;;;;3.40;1.80;;;;;;;;;;5028052;28;20328;-66
2022/04/01 04:17:56;;;;;;;4.17;2.03;;;;;;;;;;5026760;28;20229;-67
2022/04/01 04:20:38;;;;;;;4.20;1.57;;;;;;;;;;5027470;28;20276;-67
2022/04/01 04:23:24;;;;;;;3.07;1.87;;;;;;;;;;5019352;28;20189;-67
2022/04/01 04:26:00;;;;;;;5.20;1.43;;;;;;;;;;5016881;28;20186;-66
2022/04/01 04:28:27;;;;;;;2.07;1.30;;;;;;;;;;5023106;28;21032;-67
2022/04/01 04:30:54;;;;;;;2.70;1.67;;;;;;;;;;5023098;28;20272;-67
2022/04/01 04:33:23;;;;;;;1.87;1.10;;;;;;;;;;5023809;28;20584;-67
2022/04/01 04:35:49;;;;;;;3.17;1.50;;;;;;;;;;5026385;28;20184;-67
2022/04/01 04:38:20;;;;;;;1.10;0.60;;;;;;;;;;5027648;28;20228;-67
2022/04/01 04:40:46;;;;;;;4.90;1.40;;;;;;;;;;5027507;28;20649;-67
2022/04/01 04:43:14;;;;;;;4.40;1.60;;;;;;;;;;5027192;28;20205;-67
2022/04/01 04:45:40;;;;;;;2.27;1.37;;;;;;;;;;5024011;28;20202;-67
2022/04/01 04:48:08;;;;;;;5.73;1.93;;;;;;;;;;5027795;28;20184;-67
2022/04/01 04:50:35;;;;;;;4.30;1.73;;;;;;;;;;5018923;28;20270;-67
2022/04/01 04:53:01;;;;;;;2.53;1.67;;;;;;;;;;5020129;28;20185;-66
2022/04/01 04:55:26;;;;;;;4.60;1.90;;;;;;;;;;5024797;28;20400;-67
2022/04/01 04:57:53;;;;;;;5.60;1.70;;;;;;;;;;5021451;28;20208;-67
2022/04/01 05:00:20;;;;;;;1.30;1.00;;;;;;;;;;5022614;28;20187;-67
2022/04/01 05:03:07;;;;;;;2.70;1.40;;;;;;;;;;5023934;28;20225;-67
2022/04/01 05:05:51;;;;;;;3.73;1.80;;;;;;;;;;5024838;28;20627;-67
2022/04/01 05:08:53;;;;;;;5.30;1.73;;;;;;;;;;5026511;28;20182;-67
2022/04/01 05:11:54;;;;;;;2.10;1.47;;;;;;;;;;5016596;28;20178;-67
2022/04/01 05:14:42;;;;;;;4.23;1.60;;;;;;;;;;5017488;28;20170;-67
2022/04/01 05:17:23;;;;;;;3.57;1.63;;;;;;;;;;5022948;28;20178;-67
2022/04/01 05:19:57;;;;;;;3.40;1.63;;;;;;;;;;5018336;28;20187;-67
2022/04/01 05:22:29;;;;;;;3.00;1.53;;;;;;;;;;5020262;28;20183;-67
2022/04/01 05:25:00;;;;;;;2.13;0.70;;;;;;;;;;5023742;28;20205;-68
2022/04/01 05:27:32;;;;;;;3.27;1.33;;;;;;;;;;5015598;28;20702;-67
2022/04/01 05:30:13;;;;;;;4.00;1.37;;;;;;;;;;5022900;28;20257;-67
2022/04/01 05:32:40;;;;;;;2.23;0.70;;;;;;;;;;5017862;28;20189;-67
2022/04/01 05:35:07;;;;;;;2.40;1.20;;;;;;;;;;5020697;28;20274;-67
2022/04/01 05:37:34;;;;;;;3.67;1.40;;;;;;;;;;5016901;28;20210;-67
2022/04/01 05:40:05;;;;;;;3.90;1.10;;;;;;;;;;5014047;28;20183;-68
2022/04/01 05:42:32;;;;;;;2.83;1.17;;;;;;;;;;5024792;28;20179;-68
2022/04/01 05:44:59;;;;;;;1.27;0.90;;;;;;;;;;5025599;28;20182;-68
2022/04/01 05:47:25;;;;;;;2.10;0.87;;;;;;;;;;5022757;28;20601;-68
2022/04/01 05:49:56;;;;;;;3.00;1.23;;;;;;;;;;5027908;28;20178;-67
2022/04/01 05:52:21;;;;;;;1.63;0.90;;;;;;;;;;5014802;28;20209;-68
2022/04/01 05:54:49;;;;;;;2.53;1.10;;;;;;;;;;5019048;28;20330;-68
2022/04/01 05:57:18;;;;;;;1.60;0.90;;;;;;;;;;5022237;28;20260;-68
2022/04/01 05:59:45;;;;;;;1.53;0.73;;;;;;;;;;5025420;28;20261;-68
2022/04/01 06:02:30;;;;;;;2.03;0.97;;;;;;;;;;5022407;28;20580;-68
2022/04/01 06:05:05;;;;;;;3.07;1.30;;;;;;;;;;5026470;28;20220;-68
2022/04/01 06:07:35;;;;;;;2.20;1.27;;;;;;;;;;5024586;28;20302;-68
2022/04/01 06:10:26;;;;;;;3.30;1.50;;;;;;;;;;5025261;28;20189;-68
2022/04/01 06:13:15;;;;;;;2.80;0.90;;;;;;;;;;5026247;28;20213;-68
2022/04/01 06:16:08;;;;;;;4.07;1.00;;;;;;;;;;5024899;28;20190;-68
2022/04/01 06:18:55;;;;;;;2.73;1.37;;;;;;;;;;5020836;28;20210;-69
2022/04/01 06:21:25;;;;;;;1.30;0.77;;;;;;;;;;5021683;28;20174;-68
2022/04/01 06:24:09;;;;;;;2.50;1.07;;;;;;;;;;5020891;28;20186;-68
2022/04/01 06:26:39;;;;;;;2.33;0.90;;;;;;;;;;5020750;28;20178;-68
2022/04/01 06:29:35;;;;;;;6.17;1.27;;;;;;;;;;5021773;28;20617;-67
2022/04/01 06:32:07;;;;;;;3.93;0.73;;;;;;;;;;5019681;28;20592;-67
2022/04/01 06:35:05;;;;;;;1.60;0.97;;;;;;;;;;5019660;28;20170;-67
2022/04/01 06:37:36;;;;;;;1.33;0.70;;;;;;;;;;5012447;28;20600;-67
2022/04/01 06:40:12;;;;;;;0.87;0.50;;;;;;;;;;5021267;28;20268;-67
2022/04/01 06:42:39;;;;;;;2.33;0.70;;;;;;;;;;5020315;28;20181;-67
2022/04/01 06:45:10;;;;;;;0.87;0.70;;;;;;;;;;5023573;28;20244;-67
2022/04/01 06:47:36;;;;;;;1.87;1.10;;;;;;;;;;5019927;28;20297;-67
2022/04/01 06:50:03;;;;;;;2.57;1.20;;;;;;;;;;5022833;28;20244;-67
2022/04/01 06:52:28;;;;;;;1.57;1.10;;;;;;;;;;5019349;28;20719;-67
2022/04/01 06:54:55;;;;;;;0.93;0.60;;;;;;;;;;5023832;28;20182;-67
2022/04/01 06:57:20;;;;;;;6.43;0.80;;;;;;;;;;5019270;28;20182;-67
2022/04/01 06:59:46;;;;;;;1.37;0.77;;;;;;;;;;5021341;28;20182;-66
2022/04/01 07:02:11;;;;;;;3.47;1.17;;;;;;;;;;5022014;28;20258;-67
2022/04/01 07:04:37;;;;;;;1.53;0.80;;;;;;;;;;5014988;28;20276;-67
2022/04/01 07:07:03;;;;;;;1.87;0.60;;;;;;;;;;5019601;28;20721;-67
2022/04/01 07:09:28;;;;;;;1.40;0.77;;;;;;;;;;5015675;28;20183;-71
2022/04/01 07:11:56;;;;;;;0.80;0.50;;;;;;;;;;5016766;28;20334;-67
2022/04/01 07:14:22;;;;;;;1.80;0.73;;;;;;;;;;5020579;28;20186;-67
2022/04/01 07:16:47;;;;;;;1.90;0.50;;;;;;;;;;5020846;28;20182;-68
2022/04/01 07:19:12;;;;;;;1.90;0.90;;;;;;;;;;5015427;28;20214;-67
2022/04/01 07:21:38;;;;;;;1.03;0.63;;;;;;;;;;5014656;28;20261;-67
2022/04/01 07:24:04;;;;;;;1.43;0.50;;;;;;;;;;5022577;28;20192;-67
2022/04/01 07:26:29;;;;;;;0.40;0.20;;;;;;;;;;5024745;28;20646;-69
2022/04/01 07:28:55;;;;;;;3.73;0.40;;;;;;;;;;5026815;28;20223;-67
2022/04/01 07:34:06;;;;;;;0.53;0.47;;;;;;;;;;5027892;28;20296;-67
2022/04/01 07:36:31;;;;;;;1.50;0.60;;;;;;;;;;5029376;28;20658;-67
2022/04/01 07:38:56;;;;;;;0.87;0.63;;;;;;;;;;5027577;28;20297;-67
2022/04/01 07:41:22;;;;;;;2.70;0.80;;;;;;;;;;5029273;28;20268;-67
2022/04/01 07:43:47;;;;;;;0.90;0.53;;;;;;;;;;5028548;28;20233;-68
2022/04/01 07:46:12;;;;;;;1.37;0.70;;;;;;;;;;5026623;28;20380;-67
2022/04/01 07:48:38;;;;;;;0.73;0.57;;;;;;;;;;5023836;28;20187;-68
2022/04/01 07:51:03;;;;;;;2.03;0.60;;;;;;;;;;5028860;28;20286;-68
2022/04/01 07:53:28;;;;;;;2.97;0.60;;;;;;;;;;5027480;28;20373;-68
2022/04/01 07:55:54;;;;;;;2.53;0.70;;;;;;;;;;5029178;28;20266;-68
2022/04/01 07:58:19;;;;;;;0.87;0.50;;;;;;;;;;5027886;28;20469;-68
2022/04/01 08:00:45;;;;;;;2.63;0.50;;;;;;;;;;5025462;28;20614;-68
2022/04/01 08:03:11;;;;;;;0.70;0.40;;;;;;;;;;5026128;28;20190;-71
2022/04/01 08:05:36;;;;;;;4.43;1.00;;;;;;;;;;5026132;28;20182;-70
2022/04/01 08:08:01;;;;;;;2.27;0.77;;;;;;;;;;5027607;28;20193;-70
2022/04/01 08:10:27;;;;;;;2.10;0.60;;;;;;;;;;5028372;28;20529;-70
2022/04/01 08:12:52;;;;;;;4.27;0.80;;;;;;;;;;5027142;28;20662;-70
2022/04/01 08:15:18;;;;;;;0.87;0.53;;;;;;;;;;5028318;28;20364;-72
2022/04/01 08:17:43;;;;;;;3.67;1.40;;;;;;;;;;5026292;28;20226;-71
2022/04/01 08:20:12;;;;;;;3.23;0.70;;;;;;;;;;5029103;28;20248;-71
2022/04/01 08:22:38;;;;;;;3.20;1.40;;;;;;;;;;5022582;28;20189;-72
2022/04/01 08:25:04;;;;;;;0.97;0.60;;;;;;;;;;5024589;28;20188;-74
2022/04/01 08:27:30;;;;;;;2.53;1.17;;;;;;;;;;5026577;28;20186;-73
2022/04/01 08:29:59;;;;;;;2.37;0.90;;;;;;;;;;5024444;28;20189;-73
2022/04/01 08:32:29;;;;;;;3.37;0.83;;;;;;;;;;5018192;28;20206;-73
2022/04/01 08:34:55;;;;;;;1.90;1.17;;;;;;;;;;5020645;28;20271;-73
2022/04/01 08:37:20;;;;;;;1.80;1.20;;;;;;;;;;5016991;28;20186;-73
2022/04/01 08:39:47;;;;;;;3.37;1.40;;;;;;;;;;5026763;28;20197;-74
2022/04/01 08:42:13;;;;;;;2.57;1.53;;;;;;;;;;5026024;28;20186;-73
2022/04/01 08:44:41;;;;;;;2.53;0.80;;;;;;;;;;5016962;28;20193;-71
2022/04/01 08:47:08;;;;;;;4.07;1.40;;;;;;;;;;5022375;28;20269;-73
2022/04/01 08:49:33;;;;;;;3.47;1.57;;;;;;;;;;5025875;28;20194;-71
2022/04/01 08:51:59;;;;;;;2.43;1.30;;;;;;;;;;5026083;28;20288;-73
2022/04/01 08:54:24;;;;;;;3.33;1.60;;;;;;;;;;5027522;28;20185;-72
2022/04/01 08:56:50;;;;;;;1.90;1.10;;;;;;;;;;5026617;28;20680;-73
2022/04/01 08:59:15;;;;;;;5.30;1.90;;;;;;;;;;5026981;28;20572;-74
2022/04/01 09:01:43;;;;;;;2.50;1.43;;;;;;;;;;5022443;28;20182;-72
2022/04/01 09:04:23;;;;;;;2.23;1.33;;;;;;;;;;5026893;28;20197;-72
2022/04/01 09:06:50;;;;;;;4.53;1.70;;;;;;;;;;5027995;28;20708;-73
2022/04/01 09:09:27;;;;;;;3.40;1.50;;;;;;;;;;5026916;28;20170;-74
2022/04/01 09:12:06;;;;;;;1.93;1.37;;;;;;;;;;5025409;28;20243;-73
2022/04/01 09:14:32;;;;;;;3.90;1.97;;;;;;;;;;5027512;28;20180;-73
2022/04/01 09:16:58;;;;;;;5.93;2.10;;;;;;;;;;5026370;28;20201;-73
2022/04/01 09:19:32;;;;;;;3.60;1.83;;;;;;;;;;5025769;28;20575;-73
2022/04/01 09:22:13;;;;;;;5.43;2.17;;;;;;;;;;5023206;28;20182;-73
2022/04/01 09:24:55;;;;;;;4.03;2.13;;;;;;;;;;5026292;28;20240;-74
2022/04/01 09:27:45;;;;;;;5.10;2.47;;;;;;;;;;5022415;28;20261;-75
2022/04/01 09:30:26;;;;;;;8.80;2.33;;;;;;;;;;5024663;28;20216;-76
2022/04/01 09:32:58;;;;;;;4.37;1.97;;;;;;;;;;5026463;28;20239;-75
2022/04/01 09:35:31;;;;;;;6.00;2.03;;;;;;;;;;5027713;28;20174;-74
2022/04/01 09:38:09;;;;;;;3.47;1.90;;;;;;;;;;5027667;28;20323;-75
2022/04/01 09:40:37;;;;;;;6.97;2.80;;;;;;;;;;5027210;28;20181;-74
2022/04/01 09:43:03;;;;;;;2.50;1.63;;;;;;;;;;5015426;28;20178;-74
2022/04/01 09:45:30;;;;;;;4.33;1.87;;;;;;;;;;5026483;28;20712;-75
2022/04/01 09:48:07;;;;;;;4.03;2.50;;;;;;;;;;5022648;28;20224;-75
2022/04/01 09:50:33;;;;;;;6.07;2.23;;;;;;;;;;5027342;28;20182;-73
2022/04/01 09:53:11;;;;;;;4.10;2.00;;;;;;;;;;5026829;28;20274;-73
2022/04/01 09:55:43;;;;;;;4.17;2.30;;;;;;;;;;5012944;28;20312;-74
2022/04/01 09:58:09;;;;;;;2.73;1.47;;;;;;;;;;5022135;28;20202;-72
2022/04/01 10:00:40;;;;;;;2.63;1.73;;;;;;;;;;5016586;28;20198;-71
2022/04/01 10:03:06;;;;;;;6.37;1.83;;;;;;;;;;5022554;28;20240;-71
2022/04/01 10:05:34;;;;;;;3.97;1.70;;;;;;;;;;5024466;28;20296;-70
2022/04/01 10:08:02;;;;;;;1.93;1.30;;;;;;;;;;5012846;28;20692;-71
2022/04/01 10:10:29;;;;;;;3.47;2.30;;;;;;;;;;5022553;28;20182;-70
2022/04/01 10:13:00;;;;;;;4.27;2.77;;;;;;;;;;5023496;28;20189;-70
2022/04/01 10:15:28;;;;;;;5.23;2.47;;;;;;;;;;5023349;28;20178;-70
2022/04/01 10:17:56;;;;;;;3.10;1.93;;;;;;;;;;5021583;28;20232;-70
2022/04/01 10:20:31;;;;;;;6.40;2.93;;;;;;;;;;5025346;28;20530;-71
2022/04/01 10:22:56;;;;;;;5.50;2.80;;;;;;;;;;5006435;28;20186;-70
2022/04/01 10:25:36;;;;;;;3.83;2.60;;;;;;;;;;5011602;28;20236;-71
2022/04/01 10:28:03;;;;;;;5.23;3.10;;;;;;;;;;5021191;28;20260;-70
2022/04/01 10:30:33;;;;;;;7.03;3.20;;;;;;;;;;5021939;28;20197;-69
2022/04/01 10:32:59;;;;;;;5.47;2.60;;;;;;;;;;5021351;28;20178;-69
2022/04/01 10:35:29;;;;;;;4.43;2.37;;;;;;;;;;5020464;28;20209;-69
2022/04/01 10:38:15;;;;;;;6.90;2.63;;;;;;;;;;5022902;28;20201;-70
2022/04/01 10:40:42;;;;;;;5.40;2.60;;;;;;;;;;5024932;28;20174;-70
2022/04/01 10:43:13;;;;;;;4.63;2.90;;;;;;;;;;5020856;28;20178;-70
2022/04/01 10:45:41;;;;;;;5.87;2.90;;;;;;;;;;5022671;28;20521;-70
2022/04/01 10:51:38;;;;;;;3.97;2.77;;;;;;;;;;5022783;28;20204;-71
2022/04/01 10:54:23;;;;;;;6.27;2.90;;;;;;;;;;5022052;28;20665;-69
2022/04/01 10:57:06;;;;;;;7.20;3.40;;;;;;;;;;5023483;28;20182;-68
2022/04/01 10:59:46;;;;;;;4.93;2.90;;;;;;;;;;5024809;28;20209;-69
2022/04/01 11:02:15;;;;;;;4.60;2.97;;;;;;;;;;5029249;28;20771;-69
2022/04/01 11:04:43;;;;;;;7.23;3.43;;;;;;;;;;5030177;28;20918;-70
2022/04/01 11:07:14;;;;;;;5.63;3.07;;;;;;;;;;5029979;28;20277;-71
2022/04/01 11:09:50;;;;;;;5.83;2.97;;;;;;;;;;5027732;28;20181;-70
2022/04/01 11:12:15;;;;;;;5.93;3.73;;;;;;;;;;5026578;28;20216;-69
2022/04/01 11:17:30;;;;;;;5.03;3.20;;;;;;;;;;5027763;28;20185;-69
2022/04/01 11:20:04;;;;;;;7.17;3.13;;;;;;;;;;5027891;28;20618;-70
2022/04/01 11:22:59;;;;;;;5.60;3.20;;;;;;;;;;5026733;28;20205;-69
2022/04/01 11:25:24;;;;;;;6.53;3.43;;;;;;;;;;5027119;28;20189;-69
2022/04/01 11:27:55;;;;;;;5.53;3.30;;;;;;;;;;5028998;28;20186;-70
2022/04/01 11:30:22;;;;;;;5.53;3.17;;;;;;;;;;5026687;28;20272;-69
2022/04/01 11:32:53;;;;;;;9.43;3.40;;;;;;;;;;5024230;28;20205;-68
2022/04/01 11:35:21;;;;;;;5.00;3.10;;;;;;;;;;5028339;28;20174;-70
2022/04/01 11:37:46;;;;;;;5.13;3.30;;;;;;;;;;5027403;28;20220;-70
2022/04/01 11:40:15;;;;;;;8.00;3.60;;;;;;;;;;5023018;28;20552;-69
2022/04/01 11:42:53;;;;;;;4.10;2.73;;;;;;;;;;5024563;28;20554;-69
2022/04/01 11:45:20;;;;;;;9.43;3.73;;;;;;;;;;5023853;28;20181;-68
2022/04/01 11:47:47;;;;;;;8.23;3.30;;;;;;;;;;5026107;28;20240;-68
2022/04/01 11:50:15;;;;;;;6.03;2.90;;;;;;;;;;5023037;28;20190;-68
2022/04/01 11:52:42;;;;;;;6.60;2.63;;;;;;;;;;5029785;28;20193;-68
2022/04/01 11:55:22;;;;;;;8.03;3.17;;;;;;;;;;5022396;28;20174;-69
2022/04/01 11:57:52;;;;;;;5.23;2.77;;;;;;;;;;5028418;28;20561;-69
2022/04/01 12:00:22;;;;;;;5.87;2.70;;;;;;;;;;5027775;28;20186;-68
2022/04/01 12:02:53;;;;;;;5.63;2.87;;;;;;;;;;5027078;28;20312;-69
2022/04/01 12:05:19;;;;;;;7.03;3.20;;;;;;;;;;5026070;28;20399;-68
2022/04/01 12:10:41;;;;;;;5.77;2.43;;;;;;;;;;5026815;28;20529;-68
2022/04/01 12:13:09;;;;;;;6.00;2.90;;;;;;;;;;5024243;28;20596;-69
2022/04/01 12:15:49;;;;;;;4.53;2.63;;;;;;;;;;5027172;28;20597;-68
2022/04/01 12:18:29;;;;;;;3.80;2.30;;;;;;;;;;5022701;28;20194;-68
2022/04/01 12:20:59;;;;;;;3.47;1.80;;;;;;;;;;5026839;28;20498;-68
2022/04/01 12:23:32;;;;;;;6.23;2.30;;;;;;;;;;5028126;28;20201;-68
2022/04/01 12:25:59;;;;;;;6.50;1.93;;;;;;;;;;5026858;28;20188;-68
2022/04/01 12:28:39;;;;;;;3.17;1.93;;;;;;;;;;5026139;28;20182;-68
2022/04/01 12:31:05;;;;;;;5.83;2.23;;;;;;;;;;5024902;28;20198;-68
2022/04/01 12:33:32;;;;;;;3.73;2.20;;;;;;;;;;5023883;28;20597;-68
2022/04/01 12:36:08;;;;;;;2.53;1.80;;;;;;;;;;5029148;28;20186;-69
2022/04/01 12:38:38;;;;;;;5.13;2.00;;;;;;;;;;5021664;28;20559;-69
2022/04/01 12:41:14;;;;;;;4.30;2.00;;;;;;;;;;5027785;28;20193;-68
2022/04/01 12:43:43;;;;;;;3.87;2.00;;;;;;;;;;5027081;28;20182;-68
2022/04/01 12:46:10;;;;;;;5.00;1.80;;;;;;;;;;5027506;28;20277;-68
2022/04/01 12:48:48;;;;;;;3.43;1.90;;;;;;;;;;5019274;28;20728;-68
2022/04/01 12:51:20;;;;;;;4.00;1.80;;;;;;;;;;5022608;28;20248;-67
2022/04/01 12:53:55;;;;;;;3.97;1.63;;;;;;;;;;5024852;28;20233;-68
2022/04/01 12:56:24;;;;;;;2.50;1.47;;;;;;;;;;5026896;28;20185;-67
2022/04/01 12:58:55;;;;;;;2.83;1.60;;;;;;;;;;5024279;28;20207;-68
2022/04/01 13:01:24;;;;;;;3.83;1.67;;;;;;;;;;5025237;28;20186;-68
2022/04/01 13:03:49;;;;;;;3.23;1.57;;;;;;;;;;5025248;28;20186;-71
2022/04/01 13:06:16;;;;;;;3.87;1.67;;;;;;;;;;5019663;28;20230;-68
2022/04/01 13:08:42;;;;;;;2.73;1.80;;;;;;;;;;5026240;28;20270;-68
2022/04/01 13:11:12;;;;;;;2.87;1.53;;;;;;;;;;5022116;28;20273;-67
2022/04/01 13:13:38;;;;;;;1.77;1.40;;;;;;;;;;5025705;28;20243;-69
2022/04/01 13:16:04;;;;;;;3.23;1.63;;;;;;;;;;5026840;28;20630;-68
2022/04/01 13:18:32;;;;;;;1.83;1.27;;;;;;;;;;5026717;28;20193;-69
2022/04/01 13:20:58;;;;;;;2.90;1.50;;;;;;;;;;5024824;28;20190;-68
2022/04/01 13:23:25;;;;;;;5.63;1.50;;;;;;;;;;5023958;28;20189;-68
2022/04/01 13:25:51;;;;;;;2.83;1.63;;;;;;;;;;5022325;28;20594;-68
2022/04/01 13:28:16;;;;;;;1.73;1.13;;;;;;;;;;5026243;28;20310;-69
2022/04/01 13:30:42;;;;;;;4.63;1.33;;;;;;;;;;5023065;28;20581;-68
2022/04/01 13:33:07;;;;;;;4.77;1.50;;;;;;;;;;5025184;28;20585;-68
2022/04/01 13:35:33;;;;;;;2.00;1.20;;;;;;;;;;5025512;28;20198;-69
2022/04/01 13:37:59;;;;;;;4.63;1.77;;;;;;;;;;5024355;28;20297;-68
2022/04/01 13:40:25;;;;;;;3.43;0.90;;;;;;;;;;5020367;28;20661;-69
2022/04/01 13:42:52;;;;;;;6.13;1.90;;;;;;;;;;5024466;28;20209;-68
2022/04/01 13:45:18;;;;;;;2.50;1.20;;;;;;;;;;5025559;28;20186;-67
2022/04/01 13:47:43;;;;;;;4.17;1.37;;;;;;;;;;5026449;28;20543;-68
2022/04/01 13:50:10;;;;;;;1.40;1.10;;;;;;;;;;5022119;28;20182;-68
2022/04/01 13:52:35;;;;;;;2.93;1.40;;;;;;;;;;5024752;28;20182;-68
2022/04/01 13:55:01;;;;;;;4.97;1.23;;;;;;;;;;5021653;28;20216;-68
2022/04/01 13:57:26;;;;;;;4.37;2.10;;;;;;;;;;5021826;28;20489;-68
2022/04/01 13:59:52;;;;;;;3.40;1.30;;;;;;;;;;5024548;28;20189;-68
2022/04/01 14:02:18;;;;;;;4.00;1.50;;;;;;;;;;5022117;28;20182;-68
2022/04/01 14:04:43;;;;;;;7.43;1.50;;;;;;;;;;5021945;28;20723;-69
2022/04/01 14:07:09;;;;;;;2.73;1.50;;;;;;;;;;5024625;28;20213;-68
2022/04/01 14:09:38;;;;;;;3.67;1.77;;;;;;;;;;5023799;28;20688;-69
2022/04/01 14:12:04;;;;;;;4.00;1.40;;;;;;;;;;5022465;28;20190;-68
2022/04/01 14:14:30;;;;;;;2.27;0.97;;;;;;;;;;5021690;28;20295;-68
2022/04/01 14:16:55;;;;;;;3.63;1.50;;;;;;;;;;5025033;28;20689;-67
2022/04/01 14:19:21;;;;;;;4.87;1.50;;;;;;;;;;5025039;28;20292;-68
2022/04/01 14:21:49;;;;;;;2.20;1.27;;;;;;;;;;5023439;28;20182;-69
2022/04/01 14:24:14;;;;;;;2.37;1.30;;;;;;;;;;5024491;28;20186;-68
2022/04/01 14:26:40;;;;;;;3.60;1.37;;;;;;;;;;5024560;28;20255;-67
2022/04/01 14:31:58;;;;;;;4.50;1.60;;;;;;;;;;5021997;28;20291;-67
2022/04/01 14:34:29;;;;;;;3.60;0.90;;;;;;;;;;5023520;28;20268;-69
2022/04/01 14:36:55;;;;;;;2.13;1.20;;;;;;;;;;5019971;28;20251;-69
2022/04/01 14:39:22;;;;;;;2.83;1.40;;;;;;;;;;5020581;28;20297;-69
2022/04/01 14:41:47;;;;;;;1.43;0.90;;;;;;;;;;5007703;28;20182;-72
2022/04/01 14:44:12;;;;;;;2.73;1.13;;;;;;;;;;5019789;28;20213;-68
2022/04/01 14:46:38;;;;;;;4.97;1.20;;;;;;;;;;5023757;28;20178;-68
2022/04/01 14:49:04;;;;;;;2.10;1.30;;;;;;;;;;5022968;28;20178;-68
2022/04/01 14:51:29;;;;;;;1.93;0.97;;;;;;;;;;5024222;28;20181;-68
2022/04/01 14:53:55;;;;;;;2.33;1.20;;;;;;;;;;5024438;28;20181;-68
2022/04/01 14:56:20;;;;;;;2.60;1.30;;;;;;;;;;5020725;28;20179;-68
2022/04/01 14:58:45;;;;;;;2.13;1.00;;;;;;;;;;5024516;28;20541;-70
2022/04/01 15:01:11;;;;;;;1.43;1.10;;;;;;;;;;5021372;28;20190;-69
2022/04/01 15:03:37;;;;;;;1.87;1.03;;;;;;;;;;5020974;28;20190;-69
2022/04/01 15:06:03;;;;;;;2.73;1.17;;;;;;;;;;5023330;28;20193;-70
2022/04/01 15:08:28;;;;;;;2.83;1.10;;;;;;;;;;5024776;28;20240;-70
2022/04/01 15:10:54;;;;;;;3.20;1.27;;;;;;;;;;5023157;28;20174;-68
2022/04/01 15:13:19;;;;;;;2.57;1.10;;;;;;;;;;5022222;28;20182;-66
2022/04/01 15:15:44;;;;;;;2.90;1.50;;;;;;;;;;5023960;28;20181;-67